createdAt,value
2022-07-29T00:02:09.493Z,16.38
2022-07-29T00:05:15.565Z,16.33
2022-07-29T00:08:20.038Z,16.29
2022-07-29T00:11:26.163Z,16.26
2022-07-29T00:14:32.555Z,16.25
2022-07-29T00:17:38.757Z,16.24
2022-07-29T00:20:44.858Z,16.21
2022-07-29T00:23:49.353Z,16.19
2022-07-29T00:26:55.526Z,16.16
2022-07-29T00:30:01.734Z,16.10
2022-07-29T00:33:09.233Z,16.06
2022-07-29T00:36:15.494Z,16.03
2022-07-29T00:39:20.029Z,16.02
2022-07-29T00:42:26.145Z,16.00
2022-07-29T00:45:31.073Z,15.96
2022-07-29T00:48:37.519Z,15.93
2022-07-29T00:51:43.919Z,15.91
2022-07-29T00:54:50.187Z,15.88
2022-07-29T00:57:57.188Z,15.84
2022-07-29T01:01:03.802Z,15.79
2022-07-29T01:04:11.018Z,15.81
2022-07-29T01:07:17.889Z,15.82
2022-07-29T01:10:26.056Z,15.79
2022-07-29T01:13:34.548Z,15.78
2022-07-29T01:16:48.054Z,15.74
2022-07-29T01:20:12.943Z,15.70
2022-07-29T01:23:54.674Z,15.67
2022-07-29T01:27:07.594Z,15.62
2022-07-29T01:30:15.672Z,15.61
2022-07-29T01:33:43.886Z,15.65
2022-07-29T01:36:54.964Z,15.65
2022-07-29T01:40:04.762Z,15.64
2022-07-29T01:43:16.192Z,15.64
2022-07-29T01:46:28.015Z,15.60
2022-07-29T01:49:38.175Z,15.58
2022-07-29T01:52:49.014Z,15.58
2022-07-29T01:55:56.923Z,15.58
2022-07-29T01:59:07.134Z,15.58
2022-07-29T02:02:16.314Z,15.56
2022-07-29T02:05:25.410Z,15.54
2022-07-29T02:08:34.072Z,15.54
2022-07-29T02:11:42.630Z,15.54
2022-07-29T02:14:52.852Z,15.55
2022-07-29T02:18:02.327Z,15.53
2022-07-29T02:21:14.897Z,15.51
2022-07-29T02:24:40.914Z,15.51
2022-07-29T02:27:49.442Z,15.52
2022-07-29T02:30:57.904Z,15.53
2022-07-29T02:34:06.097Z,15.51
2022-07-29T02:37:13.971Z,15.47
2022-07-29T02:40:20.911Z,15.43
2022-07-29T02:43:28.281Z,15.37
2022-07-29T02:46:37.022Z,15.24
2022-07-29T02:49:52.355Z,15.22
2022-07-29T02:53:04.562Z,15.22
2022-07-29T02:56:17.069Z,15.22
2022-07-29T02:59:29.254Z,15.24
2022-07-29T03:02:38.918Z,15.23
2022-07-29T03:05:45.113Z,15.24
2022-07-29T03:08:52.394Z,15.22
2022-07-29T03:11:59.278Z,15.18
2022-07-29T03:15:06.274Z,15.15
2022-07-29T03:18:12.572Z,15.12
2022-07-29T03:21:18.939Z,15.08
2022-07-29T03:24:33.462Z,15.04
2022-07-29T03:27:39.620Z,15.05
2022-07-29T03:30:44.616Z,15.03
2022-07-29T03:33:50.942Z,15.00
2022-07-29T03:36:57.103Z,14.98
2022-07-29T03:40:02.652Z,14.96
2022-07-29T03:43:10.951Z,14.94
2022-07-29T03:46:18.933Z,14.92
2022-07-29T03:49:26.270Z,14.89
2022-07-29T03:52:32.731Z,14.90
2022-07-29T03:55:43.699Z,14.91
2022-07-29T03:58:50.046Z,14.92
2022-07-29T04:01:57.889Z,14.94
2022-07-29T04:05:05.539Z,14.95
2022-07-29T04:08:11.711Z,14.97
2022-07-29T04:11:17.857Z,15.02
2022-07-29T04:14:22.699Z,15.06
2022-07-29T04:17:28.843Z,15.15
2022-07-29T04:20:33.353Z,15.23
2022-07-29T04:23:47.601Z,15.34
2022-07-29T04:27:00.206Z,15.59
2022-07-29T04:30:07.711Z,16.00
2022-07-29T04:33:13.899Z,16.43
2022-07-29T04:36:29.347Z,16.73
2022-07-29T04:39:36.339Z,17.03
2022-07-29T04:42:46.708Z,17.43
2022-07-29T04:45:54.127Z,17.92
2022-07-29T04:48:59.842Z,18.35
2022-07-29T04:52:06.182Z,18.57
2022-07-29T04:55:12.832Z,18.46
2022-07-29T04:58:18.492Z,18.66
2022-07-29T05:01:23.989Z,18.89
2022-07-29T05:04:29.805Z,19.09
2022-07-29T05:07:35.515Z,19.34
2022-07-29T05:10:40.992Z,19.67
2022-07-29T05:13:47.081Z,19.97
2022-07-29T05:16:53.978Z,20.20
2022-07-29T05:19:59.526Z,20.41
2022-07-29T05:23:05.579Z,20.58
2022-07-29T05:26:11.060Z,20.73
2022-07-29T05:29:44.241Z,20.87
2022-07-29T05:32:42.102Z,21.04
2022-07-29T05:35:47.681Z,21.08
2022-07-29T05:38:53.361Z,21.03
2022-07-29T05:41:58.856Z,20.99
2022-07-29T05:45:06.029Z,21.00
2022-07-29T05:48:11.593Z,21.08
2022-07-29T05:51:17.139Z,21.19
2022-07-29T05:54:22.668Z,21.41
2022-07-29T05:57:28.119Z,21.35
2022-07-29T06:00:33.944Z,21.14
2022-07-29T06:03:38.796Z,21.08
2022-07-29T06:06:44.268Z,21.24
2022-07-29T06:09:49.976Z,21.28
2022-07-29T06:12:55.781Z,21.15
2022-07-29T06:15:59.828Z,21.41
2022-07-29T06:19:05.626Z,21.74
2022-07-29T06:22:11.121Z,21.85
2022-07-29T06:25:17.376Z,21.81
2022-07-29T06:28:22.969Z,21.77
2022-07-29T06:31:28.505Z,21.84
2022-07-29T06:34:34.040Z,22.06
2022-07-29T06:37:39.579Z,22.31
2022-07-29T06:41:05.070Z,22.56
2022-07-29T06:44:10.983Z,22.80
2022-07-29T06:47:16.422Z,22.90
2022-07-29T06:50:22.747Z,23.07
2022-07-29T06:53:28.826Z,23.14
2022-07-29T06:56:39.084Z,23.17
2022-07-29T06:59:45.609Z,23.25
2022-07-29T07:02:51.183Z,23.34
2022-07-29T07:05:57.863Z,23.51
2022-07-29T07:09:06.024Z,23.53
2022-07-29T07:12:11.990Z,23.62
2022-07-29T07:15:22.833Z,23.66
2022-07-29T07:18:46.209Z,23.87
2022-07-29T07:21:51.804Z,24.03
2022-07-29T07:24:57.650Z,24.13
2022-07-29T07:28:03.092Z,24.12
2022-07-29T07:31:08.785Z,24.18
2022-07-29T07:34:13.345Z,24.20
2022-07-29T07:37:20.473Z,24.17
2022-07-29T07:40:26.601Z,24.33
2022-07-29T07:43:32.144Z,24.48
2022-07-29T07:46:37.801Z,24.66
2022-07-29T07:49:45.148Z,24.82
2022-07-29T07:52:50.343Z,24.67
2022-07-29T07:56:12.403Z,24.67
2022-07-29T07:59:18.596Z,24.78
2022-07-29T08:02:22.636Z,24.80
2022-07-29T08:05:28.410Z,24.76
2022-07-29T08:08:33.911Z,24.90
2022-07-29T08:11:39.569Z,25.12
2022-07-29T08:14:57.264Z,25.16
2022-07-29T08:18:05.239Z,25.23
2022-07-29T08:21:14.888Z,25.32
2022-07-29T08:24:38.632Z,25.37
2022-07-29T08:27:44.536Z,25.35
2022-07-29T08:30:50.158Z,25.38
2022-07-29T08:33:57.438Z,25.46
2022-07-29T08:37:04.400Z,25.71
2022-07-29T08:40:11.553Z,25.80
2022-07-29T08:43:17.075Z,25.70
2022-07-29T08:46:21.766Z,25.56
2022-07-29T08:49:27.377Z,25.57
2022-07-29T08:52:36.292Z,25.75
2022-07-29T08:55:44.559Z,25.79
2022-07-29T08:58:52.026Z,25.56
2022-07-29T09:02:00.694Z,25.53
2022-07-29T09:05:08.827Z,25.68
2022-07-29T09:08:15.045Z,25.59
2022-07-29T09:11:21.038Z,25.76
2022-07-29T09:14:26.618Z,25.86
2022-07-29T09:17:43.007Z,25.81
2022-07-29T09:21:12.916Z,25.85
2022-07-29T09:24:18.492Z,25.88
2022-07-29T09:27:23.757Z,26.04
2022-07-29T09:30:31.363Z,26.28
2022-07-29T09:33:40.477Z,26.37
2022-07-29T09:36:48.405Z,26.48
2022-07-29T09:39:54.350Z,26.46
2022-07-29T09:43:00.202Z,26.38
2022-07-29T09:46:15.317Z,26.41
2022-07-29T09:49:21.114Z,26.51
2022-07-29T09:52:27.696Z,26.55
2022-07-29T09:55:33.548Z,26.42
2022-07-29T09:58:40.027Z,26.42
2022-07-29T10:01:44.191Z,26.35
2022-07-29T10:04:49.898Z,26.44
2022-07-29T10:07:57.981Z,26.55
2022-07-29T10:11:13.375Z,26.53
2022-07-29T10:14:19.940Z,26.69
2022-07-29T10:17:26.067Z,26.68
2022-07-29T10:20:31.912Z,26.70
2022-07-29T10:23:47.181Z,26.77
2022-07-29T10:26:53.846Z,26.75
2022-07-29T10:29:59.297Z,26.82
2022-07-29T10:33:13.639Z,26.96
2022-07-29T10:36:35.014Z,27.04
2022-07-29T10:39:56.595Z,27.18
2022-07-29T10:43:11.424Z,27.41
2022-07-29T10:46:22.148Z,27.43
2022-07-29T10:49:31.669Z,27.48
2022-07-29T10:52:57.550Z,27.32
2022-07-29T10:56:06.453Z,27.01
2022-07-29T10:59:32.472Z,26.85
2022-07-29T11:02:50.140Z,26.85
2022-07-29T11:06:00.313Z,26.92
2022-07-29T11:09:25.556Z,26.98
2022-07-29T11:12:53.527Z,26.97
2022-07-29T11:15:59.925Z,27.03
2022-07-29T11:19:29.815Z,27.15
2022-07-29T11:22:45.912Z,27.15
2022-07-29T11:26:18.812Z,27.31
2022-07-29T11:29:25.311Z,27.52
2022-07-29T11:32:44.639Z,27.80
2022-07-29T11:36:11.429Z,27.89
2022-07-29T11:39:36.795Z,27.85
2022-07-29T11:42:47.476Z,27.92
2022-07-29T11:45:53.074Z,27.99
2022-07-29T11:49:00.257Z,28.07
2022-07-29T11:52:05.981Z,28.10
2022-07-29T11:55:18.263Z,28.04
2022-07-29T11:58:26.597Z,27.92
2022-07-29T12:01:32.999Z,28.07
2022-07-29T12:04:52.201Z,28.16
2022-07-29T12:07:57.849Z,28.30
2022-07-29T12:11:03.701Z,28.41
2022-07-29T12:14:09.419Z,28.41
2022-07-29T12:17:30.592Z,28.56
2022-07-29T12:20:36.613Z,28.70
2022-07-29T12:23:59.395Z,28.81
2022-07-29T12:27:10.488Z,28.71
2022-07-29T12:30:19.530Z,28.66
2022-07-29T12:33:27.504Z,28.55
2022-07-29T12:36:33.430Z,28.57
2022-07-29T12:39:39.207Z,28.74
2022-07-29T12:43:04.692Z,28.75
2022-07-29T12:46:17.333Z,28.87
2022-07-29T12:49:26.299Z,28.91
2022-07-29T12:52:33.867Z,28.87
2022-07-29T12:55:52.509Z,28.84
2022-07-29T12:58:58.189Z,28.76
2022-07-29T13:02:03.977Z,28.75
2022-07-29T13:05:12.225Z,28.70
2022-07-29T13:08:22.302Z,28.53
2022-07-29T13:11:36.620Z,28.43
2022-07-29T13:14:44.537Z,28.39
2022-07-29T13:17:49.953Z,28.38
2022-07-29T13:20:55.883Z,28.39
2022-07-29T13:24:01.460Z,28.38
2022-07-29T13:27:06.985Z,28.41
2022-07-29T13:30:14.386Z,28.41
2022-07-29T13:33:19.835Z,28.36
2022-07-29T13:36:25.332Z,28.28
2022-07-29T13:39:31.323Z,28.24
2022-07-29T13:42:37.402Z,28.22
2022-07-29T13:45:42.961Z,28.10
2022-07-29T13:48:48.522Z,28.07
2022-07-29T13:51:54.119Z,28.10
2022-07-29T13:54:59.654Z,28.22
2022-07-29T13:58:05.233Z,28.31
2022-07-29T14:01:11.228Z,28.37
2022-07-29T14:04:16.838Z,28.38
2022-07-29T14:07:22.308Z,28.38
2022-07-29T14:10:28.446Z,28.39
2022-07-29T14:13:34.298Z,28.39
2022-07-29T14:16:43.756Z,28.37
2022-07-29T14:19:54.541Z,28.28
2022-07-29T14:23:00.359Z,28.08
2022-07-29T14:26:06.121Z,27.89
2022-07-29T14:29:14.984Z,27.66
2022-07-29T14:32:20.513Z,27.47
2022-07-29T14:35:26.368Z,27.28
2022-07-29T14:38:32.051Z,27.13
2022-07-29T14:41:37.597Z,27.00
2022-07-29T14:44:44.697Z,26.90
2022-07-29T14:47:51.793Z,26.80
2022-07-29T14:51:04.898Z,26.72
2022-07-29T14:54:11.003Z,26.65
2022-07-29T14:57:17.463Z,26.58
2022-07-29T15:00:23.356Z,26.48
2022-07-29T15:03:28.890Z,26.44
2022-07-29T15:06:35.154Z,26.43
2022-07-29T15:09:49.312Z,26.42
2022-07-29T15:12:55.559Z,26.34
2022-07-29T15:16:01.215Z,26.27
2022-07-29T15:19:07.343Z,26.22
2022-07-29T15:22:13.014Z,26.14
2022-07-29T15:25:18.566Z,26.07
2022-07-29T15:28:22.611Z,26.00
2022-07-29T15:31:28.174Z,25.93
2022-07-29T15:34:33.615Z,25.86
2022-07-29T15:37:48.298Z,25.79
2022-07-29T15:40:55.081Z,25.72
2022-07-29T15:43:58.999Z,25.65
2022-07-29T15:47:04.574Z,25.60
2022-07-29T15:50:14.615Z,25.54
2022-07-29T15:53:20.169Z,25.47
2022-07-29T15:56:24.342Z,25.40
2022-07-29T15:59:29.993Z,25.33
2022-07-29T16:02:34.314Z,25.27
2022-07-29T16:05:39.963Z,25.19
2022-07-29T16:08:43.935Z,25.14
2022-07-29T16:11:51.070Z,25.04
2022-07-29T16:14:56.539Z,24.80
2022-07-29T16:18:02.000Z,24.49
2022-07-29T16:21:08.575Z,24.14
2022-07-29T16:24:13.997Z,23.70
2022-07-29T16:27:21.232Z,23.25
2022-07-29T16:30:26.779Z,22.70
2022-07-29T16:33:55.037Z,22.30
2022-07-29T16:36:58.478Z,21.91
2022-07-29T16:40:04.507Z,21.34
2022-07-29T16:43:10.384Z,20.86
2022-07-29T16:46:18.574Z,20.56
2022-07-29T16:49:24.908Z,20.51
2022-07-29T16:52:30.457Z,20.58
2022-07-29T16:55:36.028Z,20.65
2022-07-29T16:58:44.055Z,20.66
2022-07-29T17:01:50.094Z,20.64
2022-07-29T17:04:54.064Z,20.67
2022-07-29T17:07:59.533Z,20.68
2022-07-29T17:11:05.064Z,20.71
2022-07-29T17:14:11.115Z,20.72
2022-07-29T17:17:20.880Z,20.69
2022-07-29T17:20:43.212Z,20.69
2022-07-29T17:23:48.950Z,20.70
2022-07-29T17:26:54.751Z,20.71
2022-07-29T17:30:00.522Z,20.72
2022-07-29T17:33:06.179Z,20.71
2022-07-29T17:36:24.770Z,20.69
2022-07-29T17:39:30.255Z,20.65
2022-07-29T17:42:35.687Z,20.35
2022-07-29T17:45:50.115Z,20.20
2022-07-29T17:48:57.774Z,20.23
2022-07-29T17:52:03.563Z,20.27
2022-07-29T17:55:10.730Z,20.11
2022-07-29T17:58:16.905Z,20.04
2022-07-29T18:01:22.471Z,20.05
2022-07-29T18:04:28.764Z,20.08
2022-07-29T18:07:34.358Z,20.12
2022-07-29T18:10:41.413Z,20.17
2022-07-29T18:13:46.856Z,20.20
2022-07-29T18:16:52.490Z,20.19
2022-07-29T18:19:58.041Z,20.18
2022-07-29T18:23:04.196Z,20.18
2022-07-29T18:26:10.900Z,20.20
2022-07-29T18:29:16.499Z,20.22
2022-07-29T18:32:29.032Z,20.18
2022-07-29T18:35:35.347Z,20.16
2022-07-29T18:38:41.060Z,20.14
2022-07-29T18:41:50.399Z,20.06
2022-07-29T18:44:57.529Z,19.91
2022-07-29T18:48:03.755Z,19.91
2022-07-29T18:51:09.907Z,19.92
2022-07-29T18:54:15.574Z,19.89
2022-07-29T18:57:55.847Z,19.89
2022-07-29T19:00:46.562Z,19.90
2022-07-29T19:03:52.041Z,19.89
2022-07-29T19:07:00.938Z,19.90
2022-07-29T19:10:07.911Z,19.92
2022-07-29T19:13:13.609Z,19.92
2022-07-29T19:16:19.573Z,19.85
2022-07-29T19:19:25.439Z,19.83
2022-07-29T19:22:31.009Z,19.84
2022-07-29T19:25:37.572Z,19.86
2022-07-29T19:28:58.480Z,19.87
2022-07-29T19:32:04.123Z,19.90
2022-07-29T19:35:30.196Z,19.90
2022-07-29T19:38:35.895Z,19.85
2022-07-29T19:41:41.646Z,19.78
2022-07-29T19:44:47.227Z,19.71
2022-07-29T19:47:56.542Z,19.72
2022-07-29T19:51:04.848Z,19.74
2022-07-29T19:54:10.964Z,19.74
2022-07-29T19:57:16.627Z,19.75
2022-07-29T20:00:23.868Z,19.76
2022-07-29T20:03:29.664Z,19.74
2022-07-29T20:06:35.409Z,19.74
2022-07-29T20:09:41.370Z,19.66
2022-07-29T20:12:45.385Z,19.60
2022-07-29T20:15:55.005Z,19.57
2022-07-29T20:18:59.096Z,19.56
2022-07-29T20:22:04.536Z,19.54
2022-07-29T20:25:15.409Z,19.52
2022-07-29T20:28:20.977Z,19.50
2022-07-29T20:31:27.711Z,19.43
2022-07-29T20:34:33.432Z,19.43
2022-07-29T20:37:56.182Z,19.43
2022-07-29T20:41:02.107Z,19.40
2022-07-29T20:44:07.903Z,19.32
2022-07-29T20:47:13.544Z,19.29
2022-07-29T20:50:19.075Z,19.29
2022-07-29T20:53:24.851Z,19.29
2022-07-29T20:56:30.500Z,19.30
2022-07-29T20:59:36.049Z,19.27
2022-07-29T21:02:42.102Z,19.25
2022-07-29T21:05:48.004Z,19.24
2022-07-29T21:08:55.793Z,19.21
2022-07-29T21:12:02.268Z,19.21
2022-07-29T21:15:13.517Z,19.20
2022-07-29T21:18:28.323Z,19.18
2022-07-29T21:21:33.777Z,19.13
2022-07-29T21:24:40.088Z,19.15
2022-07-29T21:28:03.340Z,19.17
2022-07-29T21:31:12.419Z,19.18
2022-07-29T21:34:17.861Z,19.17
2022-07-29T21:37:24.676Z,19.18
2022-07-29T21:40:30.667Z,19.16
2022-07-29T21:43:36.108Z,19.16
2022-07-29T21:46:41.576Z,19.14
2022-07-29T21:49:47.526Z,19.13
2022-07-29T21:52:55.376Z,19.13
2022-07-29T21:56:00.980Z,19.15
2022-07-29T21:59:09.825Z,19.17
2022-07-29T22:02:18.762Z,19.17
2022-07-29T22:05:24.356Z,19.11
2022-07-29T22:08:29.788Z,19.03
2022-07-29T22:11:36.984Z,18.99
2022-07-29T22:14:42.567Z,18.95
2022-07-29T22:17:48.012Z,18.92
2022-07-29T22:20:53.435Z,18.94
2022-07-29T22:23:59.117Z,18.96
2022-07-29T22:27:04.599Z,18.96
2022-07-29T22:30:12.070Z,18.95
2022-07-29T22:33:18.193Z,18.94
2022-07-29T22:36:23.958Z,18.95
2022-07-29T22:39:29.407Z,18.93
2022-07-29T22:42:35.134Z,18.93
2022-07-29T22:45:40.574Z,18.92
2022-07-29T22:48:46.269Z,18.91
2022-07-29T22:51:52.053Z,18.90
2022-07-29T22:54:57.473Z,18.88
2022-07-29T22:58:03.017Z,18.88
2022-07-29T23:01:09.152Z,18.89
2022-07-29T23:04:14.843Z,18.88
2022-07-29T23:07:21.024Z,18.85
2022-07-29T23:10:26.799Z,18.85
2022-07-29T23:13:32.324Z,18.84
2022-07-29T23:16:38.173Z,18.80
2022-07-29T23:19:42.250Z,18.69
2022-07-29T23:22:47.703Z,18.67
2022-07-29T23:25:53.276Z,18.67
2022-07-29T23:28:58.776Z,18.65
2022-07-29T23:32:04.557Z,18.64
2022-07-29T23:35:12.097Z,18.63
2022-07-29T23:38:17.594Z,18.63
2022-07-29T23:41:23.864Z,18.61
2022-07-29T23:44:29.345Z,18.61
2022-07-29T23:47:34.819Z,18.59
2022-07-29T23:50:40.269Z,18.59
2022-07-29T23:53:53.704Z,18.58
2022-07-29T23:56:59.952Z,18.55
